createdAt,value
2022-12-07T00:01:15.429Z,77.38
2022-12-07T00:03:43.796Z,58.67
2022-12-07T00:06:12.497Z,52.83
2022-12-07T00:08:39.703Z,51.05
2022-12-07T00:11:10.843Z,41.70
2022-12-07T00:13:38.525Z,43.65
2022-12-07T00:16:08.288Z,44.30
2022-12-07T00:18:35.272Z,41.08
2022-12-07T00:21:08.179Z,47.95
2022-12-07T00:23:35.226Z,51.08
2022-12-07T00:26:11.516Z,46.03
2022-12-07T00:28:38.272Z,41.85
2022-12-07T00:33:33.584Z,42.05
2022-12-07T00:36:01.352Z,47.58
2022-12-07T00:38:32.692Z,46.63
2022-12-07T00:41:04.043Z,42.35
2022-12-07T00:43:30.923Z,56.75
2022-12-07T00:45:57.921Z,56.03
2022-12-07T00:48:25.006Z,59.70
2022-12-07T00:50:52.085Z,53.63
2022-12-07T00:53:19.174Z,54.25
2022-12-07T00:55:45.987Z,49.05
2022-12-07T00:58:12.791Z,47.40
2022-12-07T01:03:09.253Z,52.13
2022-12-07T01:05:36.263Z,49.60
2022-12-07T01:08:03.749Z,60.30
2022-12-07T01:10:32.458Z,58.47
2022-12-07T01:12:59.867Z,61.80
2022-12-07T01:15:27.038Z,60.40
2022-12-07T01:17:55.558Z,60.78
2022-12-07T01:20:22.763Z,59.00
2022-12-07T01:22:49.744Z,61.78
2022-12-07T01:25:16.541Z,67.10
2022-12-07T01:30:11.927Z,55.95
2022-12-07T01:32:38.604Z,59.03
2022-12-07T01:37:39.546Z,42.22
2022-12-07T01:40:08.288Z,56.75
2022-12-07T01:42:35.835Z,62.30
2022-12-07T01:45:37.214Z,58.75
2022-12-07T01:48:05.864Z,61.35
2022-12-07T01:50:32.868Z,66.05
2022-12-07T01:53:01.924Z,58.47
2022-12-07T01:55:28.764Z,63.00
2022-12-07T01:57:56.514Z,60.13
2022-12-07T02:00:23.565Z,62.08
2022-12-07T02:03:08.095Z,67.63
2022-12-07T02:05:36.360Z,58.55
2022-12-07T02:08:03.908Z,58.42
2022-12-07T02:10:32.500Z,62.72
2022-12-07T02:13:01.594Z,62.92
2022-12-07T02:15:54.826Z,66.97
2022-12-07T02:18:33.432Z,55.15
2022-12-07T02:21:03.088Z,57.45
2022-12-07T02:23:51.366Z,57.05
2022-12-07T02:26:40.341Z,62.05
2022-12-07T02:29:20.297Z,64.15
2022-12-07T02:32:14.160Z,50.95
2022-12-07T02:34:51.107Z,45.45
2022-12-07T02:37:30.101Z,59.20
2022-12-07T02:40:02.739Z,55.00
2022-12-07T02:42:39.137Z,52.65
2022-12-07T02:45:08.047Z,53.65
2022-12-07T02:47:37.020Z,55.65
2022-12-07T02:50:06.216Z,57.13
2022-12-07T02:52:33.117Z,64.95
2022-12-07T02:55:00.272Z,61.97
2022-12-07T02:58:00.792Z,60.22
2022-12-07T03:00:27.601Z,54.22
2022-12-07T03:06:00.629Z,61.95
2022-12-07T03:08:36.191Z,54.42
2022-12-07T03:11:18.968Z,60.58
2022-12-07T03:13:54.083Z,60.60
2022-12-07T03:16:28.051Z,63.95
2022-12-07T03:19:14.542Z,58.05
2022-12-07T03:21:45.422Z,66.28
2022-12-07T03:24:19.590Z,54.58
2022-12-07T03:26:52.563Z,58.17
2022-12-07T03:29:29.196Z,59.50
2022-12-07T03:32:26.785Z,58.22
2022-12-07T03:35:00.086Z,54.30
2022-12-07T03:37:51.750Z,53.55
2022-12-07T03:40:31.508Z,51.55
2022-12-07T03:43:00.840Z,54.30
2022-12-07T03:45:39.501Z,56.55
2022-12-07T03:48:10.895Z,57.22
2022-12-07T03:50:37.593Z,55.88
2022-12-07T03:53:18.561Z,50.05
2022-12-07T03:55:47.822Z,51.70
2022-12-07T03:58:18.727Z,47.65
2022-12-07T04:00:47.652Z,47.50
2022-12-07T04:03:14.357Z,47.38
2022-12-07T04:08:08.422Z,43.93
2022-12-07T04:10:35.654Z,46.50
2022-12-07T04:13:02.481Z,50.97
2022-12-07T04:15:29.374Z,47.67
2022-12-07T04:17:56.041Z,52.00
2022-12-07T04:20:23.123Z,53.00
2022-12-07T04:22:49.805Z,49.10
2022-12-07T04:25:16.569Z,50.42
2022-12-07T04:30:10.700Z,50.22
2022-12-07T04:32:37.843Z,47.65
2022-12-07T04:35:05.486Z,45.05
2022-12-07T04:37:32.135Z,50.20
2022-12-07T04:39:59.033Z,47.15
2022-12-07T04:42:25.839Z,49.58
2022-12-07T04:44:52.497Z,44.25
2022-12-07T04:49:45.852Z,54.65
2022-12-07T04:54:39.119Z,50.90
2022-12-07T04:57:05.851Z,54.05
2022-12-07T05:01:59.221Z,48.22
2022-12-07T05:06:52.941Z,51.78
2022-12-07T05:11:46.211Z,50.80
2022-12-07T05:16:42.462Z,53.33
2022-12-07T05:19:10.442Z,52.55
2022-12-07T05:21:37.907Z,55.42
2022-12-07T05:24:05.607Z,50.95
2022-12-07T05:26:32.360Z,49.70
2022-12-07T05:31:27.203Z,53.22
2022-12-07T05:33:54.484Z,54.65
2022-12-07T05:36:21.768Z,52.28
2022-12-07T05:38:48.660Z,53.85
2022-12-07T05:41:35.869Z,58.72
2022-12-07T05:44:03.033Z,55.67
2022-12-07T05:46:29.772Z,58.75
2022-12-07T05:51:23.143Z,48.20
2022-12-07T05:56:16.670Z,51.93
2022-12-07T05:59:02.282Z,52.85
2022-12-07T06:01:29.168Z,51.22
2022-12-07T06:03:55.859Z,53.80
2022-12-07T06:06:22.612Z,51.60
2022-12-07T06:08:49.392Z,47.05
2022-12-07T06:14:01.717Z,48.85
2022-12-07T06:16:28.478Z,57.22
2022-12-07T06:18:55.301Z,53.65
2022-12-07T06:23:48.984Z,48.70
2022-12-07T06:26:15.703Z,56.25
2022-12-07T06:31:13.642Z,54.55
2022-12-07T06:33:41.681Z,63.00
2022-12-07T06:36:09.304Z,60.58
2022-12-07T06:38:36.573Z,61.45
2022-12-07T06:41:03.662Z,57.53
2022-12-07T06:43:31.067Z,56.15
2022-12-07T06:45:57.860Z,52.80
2022-12-07T06:48:24.851Z,64.75
2022-12-07T06:50:55.159Z,56.00
2022-12-07T06:53:23.296Z,61.33
2022-12-07T06:55:50.348Z,52.47
2022-12-07T06:58:17.814Z,54.38
2022-12-07T07:00:45.705Z,69.55
2022-12-07T07:03:12.720Z,61.55
2022-12-07T07:05:39.479Z,66.72
2022-12-07T07:10:50.140Z,65.22
2022-12-07T07:15:43.553Z,69.93
2022-12-07T07:20:39.064Z,63.03
2022-12-07T07:23:06.247Z,58.75
2022-12-07T07:25:33.831Z,61.85
2022-12-07T07:28:00.555Z,61.72
2022-12-07T07:30:27.841Z,59.53
2022-12-07T07:32:59.432Z,62.03
2022-12-07T07:35:30.805Z,66.32
2022-12-07T07:37:57.480Z,63.92
2022-12-07T07:40:24.784Z,68.88
2022-12-07T07:42:52.978Z,69.78
2022-12-07T07:45:21.522Z,70.43
2022-12-07T07:47:49.050Z,59.40
2022-12-07T07:50:16.944Z,64.03
2022-12-07T07:52:44.318Z,68.53
2022-12-07T07:55:11.639Z,72.15
2022-12-07T07:57:39.791Z,73.45
2022-12-07T08:00:11.114Z,67.85
2022-12-07T08:02:41.344Z,67.60
2022-12-07T08:05:08.863Z,71.32
2022-12-07T08:07:35.880Z,67.38
2022-12-07T08:10:03.350Z,70.00
2022-12-07T08:12:30.246Z,63.08
2022-12-07T08:17:23.530Z,65.80
2022-12-07T08:22:16.764Z,64.60
2022-12-07T08:24:43.700Z,68.00
2022-12-07T08:27:10.822Z,70.90
2022-12-07T08:29:37.496Z,69.10
2022-12-07T08:34:37.799Z,65.80
2022-12-07T08:37:04.670Z,64.80
2022-12-07T08:39:32.650Z,63.08
2022-12-07T08:41:59.649Z,63.40
2022-12-07T08:44:26.549Z,70.55
2022-12-07T08:46:59.461Z,62.05
2022-12-07T08:49:33.087Z,68.65
2022-12-07T08:51:59.808Z,67.25
2022-12-07T08:54:26.852Z,69.45
2022-12-07T08:56:59.432Z,63.17
2022-12-07T08:59:28.375Z,54.10
2022-12-07T09:01:55.472Z,63.63
2022-12-07T09:04:22.412Z,70.82
2022-12-07T09:06:49.561Z,67.97
2022-12-07T09:09:16.637Z,64.85
2022-12-07T09:11:43.388Z,64.72
2022-12-07T09:14:10.236Z,64.50
2022-12-07T09:19:03.760Z,74.03
2022-12-07T09:21:30.692Z,68.78
2022-12-07T09:23:57.655Z,62.25
2022-12-07T09:26:24.350Z,74.88
2022-12-07T09:28:51.020Z,73.05
2022-12-07T09:33:57.963Z,64.25
2022-12-07T09:36:25.673Z,66.78
2022-12-07T09:38:52.715Z,64.30
2022-12-07T09:41:20.348Z,72.18
2022-12-07T09:43:47.892Z,70.38
2022-12-07T09:46:17.760Z,68.60
2022-12-07T09:48:45.782Z,67.00
2022-12-07T09:51:25.560Z,65.55
2022-12-07T09:53:54.597Z,69.47
2022-12-07T09:56:22.733Z,75.32
2022-12-07T09:58:50.402Z,69.03
2022-12-07T10:01:22.425Z,65.22
2022-12-07T10:03:56.140Z,60.83
2022-12-07T10:06:24.649Z,57.30
2022-12-07T10:08:51.369Z,60.55
2022-12-07T10:13:49.751Z,55.72
2022-12-07T10:16:25.801Z,66.03
2022-12-07T10:18:53.264Z,64.10
2022-12-07T10:21:25.151Z,66.03
2022-12-07T10:24:15.585Z,54.90
2022-12-07T10:26:54.571Z,63.78
2022-12-07T10:29:47.718Z,61.05
2022-12-07T10:32:17.520Z,59.92
2022-12-07T10:34:48.775Z,57.20
2022-12-07T10:37:21.351Z,63.50
2022-12-07T10:39:53.411Z,50.85
2022-12-07T10:42:28.834Z,51.75
2022-12-07T10:45:18.773Z,42.80
2022-12-07T10:47:57.690Z,42.30
2022-12-07T10:50:57.839Z,41.35
2022-12-07T10:53:27.243Z,39.95
2022-12-07T10:56:12.472Z,32.20
2022-12-07T10:59:00.963Z,33.15
2022-12-07T11:01:34.161Z,36.33
2022-12-07T11:04:12.151Z,38.92
2022-12-07T11:07:04.641Z,38.97
2022-12-07T11:12:52.511Z,38.03
2022-12-07T11:15:23.682Z,35.53
2022-12-07T11:18:00.934Z,37.50
2022-12-07T11:20:40.405Z,36.22
2022-12-07T11:23:37.946Z,38.42
2022-12-07T11:26:19.552Z,37.78
2022-12-07T11:29:19.992Z,34.92
2022-12-07T11:32:16.793Z,34.22
2022-12-07T11:35:03.333Z,36.10
2022-12-07T11:37:38.145Z,34.35
2022-12-07T11:40:22.162Z,34.53
2022-12-07T11:43:18.123Z,34.92
2022-12-07T11:45:53.095Z,32.42
2022-12-07T11:48:39.188Z,37.42
2022-12-07T11:51:10.535Z,36.92
2022-12-07T11:53:53.829Z,35.22
2022-12-07T11:56:23.029Z,38.22
2022-12-07T11:59:02.371Z,37.50
2022-12-07T12:01:34.271Z,33.45
2022-12-07T12:04:10.444Z,37.20
2022-12-07T12:06:42.984Z,43.95
2022-12-07T12:09:40.314Z,39.58
2022-12-07T12:16:28.256Z,35.22
2022-12-07T12:19:05.656Z,34.05
2022-12-07T12:24:24.671Z,33.28
2022-12-07T12:27:13.547Z,31.35
2022-12-07T12:29:42.814Z,34.90
2022-12-07T12:32:21.030Z,29.02
2022-12-07T12:35:21.390Z,32.65
2022-12-07T12:37:48.691Z,30.73
2022-12-07T12:40:15.436Z,27.50
2022-12-07T12:42:48.115Z,24.95
2022-12-07T12:45:22.185Z,31.17
2022-12-07T12:48:05.670Z,35.75
2022-12-07T12:50:38.546Z,32.80
2022-12-07T12:53:21.950Z,33.05
2022-12-07T12:56:00.796Z,31.27
2022-12-07T12:58:33.527Z,33.20
2022-12-07T13:01:28.330Z,34.50
2022-12-07T13:03:56.821Z,33.50
2022-12-07T13:06:27.203Z,38.67
2022-12-07T13:08:57.119Z,36.50
2022-12-07T13:11:37.752Z,32.80
2022-12-07T13:14:41.030Z,37.90
2022-12-07T13:17:13.282Z,32.20
2022-12-07T13:19:43.110Z,30.65
2022-12-07T13:22:31.512Z,33.42
2022-12-07T13:25:32.594Z,35.65
2022-12-07T13:28:11.903Z,28.77
2022-12-07T13:31:05.105Z,33.78
2022-12-07T13:33:35.264Z,31.50
2022-12-07T13:36:02.429Z,35.33
2022-12-07T13:38:38.169Z,34.10
2022-12-07T13:41:04.956Z,31.40
2022-12-07T13:45:59.976Z,30.10
2022-12-07T13:48:33.812Z,26.38
2022-12-07T13:51:04.008Z,27.23
2022-12-07T13:53:31.591Z,28.05
2022-12-07T13:56:00.450Z,28.63
2022-12-07T13:58:31.577Z,26.05
2022-12-07T14:00:59.151Z,25.00
2022-12-07T14:03:32.718Z,24.48
2022-12-07T14:06:19.206Z,25.40
2022-12-07T14:08:46.334Z,26.58
2022-12-07T14:11:21.129Z,24.08
2022-12-07T14:14:01.391Z,25.27
2022-12-07T14:16:38.841Z,23.75
2022-12-07T14:19:26.671Z,24.58
2022-12-07T14:24:43.759Z,20.75
2022-12-07T14:27:26.836Z,22.80
2022-12-07T14:29:53.786Z,23.08
2022-12-07T14:32:28.941Z,24.70
2022-12-07T14:34:58.188Z,24.00
2022-12-07T14:37:25.803Z,24.77
2022-12-07T14:39:52.857Z,21.90
2022-12-07T14:42:20.531Z,22.15
2022-12-07T14:44:47.282Z,26.13
2022-12-07T14:50:03.411Z,19.58
2022-12-07T14:55:26.063Z,21.92
2022-12-07T14:57:53.021Z,20.67
2022-12-07T15:00:21.856Z,21.63
2022-12-07T15:02:50.150Z,21.48
2022-12-07T15:05:17.952Z,19.63
2022-12-07T15:07:46.247Z,20.05
2022-12-07T15:10:24.378Z,18.63
2022-12-07T15:12:52.240Z,21.55
2022-12-07T15:15:19.121Z,18.35
2022-12-07T15:17:45.975Z,20.98
2022-12-07T15:22:40.944Z,19.98
2022-12-07T15:25:08.957Z,21.52
2022-12-07T15:27:35.924Z,18.88
2022-12-07T15:32:29.384Z,17.55
2022-12-07T15:37:22.809Z,20.42
2022-12-07T15:42:16.200Z,16.33
2022-12-07T15:45:01.874Z,20.10
2022-12-07T15:47:28.924Z,24.65
2022-12-07T15:49:58.571Z,22.02
2022-12-07T15:52:25.411Z,20.27
2022-12-07T15:57:24.991Z,20.40
2022-12-07T15:59:52.369Z,20.60
2022-12-07T16:02:19.133Z,24.40
2022-12-07T16:07:15.404Z,22.38
2022-12-07T16:09:43.208Z,22.45
2022-12-07T16:12:11.424Z,28.30
2022-12-07T16:14:39.237Z,27.95
2022-12-07T16:17:07.194Z,24.17
2022-12-07T16:19:38.109Z,22.83
2022-12-07T16:22:05.943Z,22.02
2022-12-07T16:24:33.419Z,22.52
2022-12-07T16:27:00.245Z,20.67
2022-12-07T16:31:53.679Z,24.33
2022-12-07T16:37:04.222Z,25.85
2022-12-07T16:39:32.216Z,24.80
2022-12-07T16:41:59.018Z,24.80
2022-12-07T16:46:52.720Z,23.50
2022-12-07T16:52:03.071Z,21.75
2022-12-07T16:54:37.623Z,23.33
2022-12-07T16:57:04.304Z,20.52
2022-12-07T16:59:31.168Z,23.75
2022-12-07T17:01:57.859Z,30.42
2022-12-07T17:06:51.628Z,23.80
2022-12-07T17:09:21.326Z,25.42
2022-12-07T17:11:49.101Z,23.75
2022-12-07T17:14:34.588Z,26.13
2022-12-07T17:17:01.471Z,23.42
2022-12-07T17:19:28.201Z,25.05
2022-12-07T17:21:55.837Z,22.67
2022-12-07T17:24:22.796Z,24.65
2022-12-07T17:26:49.602Z,26.15
2022-12-07T17:29:18.462Z,22.42
2022-12-07T17:31:51.387Z,26.42
2022-12-07T17:34:19.639Z,25.65
2022-12-07T17:36:47.185Z,29.88
2022-12-07T17:39:17.836Z,27.65
2022-12-07T17:42:03.668Z,27.05
2022-12-07T17:44:30.566Z,29.23
2022-12-07T17:47:02.468Z,26.05
2022-12-07T17:49:29.723Z,24.30
2022-12-07T17:52:15.559Z,28.30
2022-12-07T17:54:42.500Z,31.85
2022-12-07T17:57:09.529Z,30.63
2022-12-07T17:59:36.396Z,23.90
2022-12-07T18:02:03.394Z,24.25
2022-12-07T18:04:30.201Z,23.90
2022-12-07T18:09:23.872Z,27.73
2022-12-07T18:11:50.844Z,25.98
2022-12-07T18:14:17.728Z,24.08
2022-12-07T18:16:46.286Z,20.92
2022-12-07T18:19:14.487Z,26.83
2022-12-07T18:21:41.691Z,26.48
2022-12-07T18:24:11.684Z,29.42
2022-12-07T18:26:39.400Z,25.13
2022-12-07T18:29:07.251Z,24.75
2022-12-07T18:31:35.803Z,25.92
2022-12-07T18:34:05.252Z,25.58
2022-12-07T18:36:32.329Z,27.00
2022-12-07T18:38:59.188Z,30.15
2022-12-07T18:41:25.943Z,26.88
2022-12-07T18:46:21.172Z,20.17
2022-12-07T18:48:50.468Z,23.20
2022-12-07T18:51:18.489Z,25.67
2022-12-07T18:53:45.671Z,25.42
2022-12-07T18:56:24.427Z,23.40
2022-12-07T18:59:12.131Z,23.85
2022-12-07T19:01:39.744Z,26.13
2022-12-07T19:04:06.775Z,30.42
2022-12-07T19:06:33.639Z,24.77
2022-12-07T19:09:00.704Z,25.85
2022-12-07T19:11:49.253Z,22.50
2022-12-07T19:14:28.047Z,30.95
2022-12-07T19:17:02.060Z,26.35
2022-12-07T19:19:35.926Z,22.35
2022-12-07T19:22:03.855Z,22.98
2022-12-07T19:24:31.015Z,25.95
2022-12-07T19:26:58.551Z,25.80
2022-12-07T19:29:27.924Z,26.40
2022-12-07T19:31:54.792Z,30.60
2022-12-07T19:34:21.612Z,35.03
2022-12-07T19:36:48.861Z,25.60
2022-12-07T19:39:16.094Z,25.30
2022-12-07T19:41:44.194Z,27.83
2022-12-07T19:44:16.554Z,27.67
2022-12-07T19:46:46.504Z,32.58
2022-12-07T19:49:15.979Z,28.98
2022-12-07T19:51:48.032Z,25.10
2022-12-07T19:54:17.266Z,23.17
2022-12-07T19:56:44.718Z,25.23
2022-12-07T19:59:13.092Z,25.90
2022-12-07T20:01:41.039Z,26.77
2022-12-07T20:04:11.442Z,26.75
2022-12-07T20:06:38.927Z,23.25
2022-12-07T20:09:05.980Z,23.58
2022-12-07T20:11:51.431Z,22.00
2022-12-07T20:14:18.133Z,21.52
2022-12-07T20:16:45.685Z,19.65
2022-12-07T20:19:14.194Z,20.50
2022-12-07T20:21:42.616Z,24.73
2022-12-07T20:24:12.800Z,23.23
2022-12-07T20:26:40.546Z,23.63
2022-12-07T20:29:17.906Z,25.95
2022-12-07T20:31:47.189Z,22.63
2022-12-07T20:34:14.378Z,24.92
2022-12-07T20:36:41.245Z,26.58
2022-12-07T20:39:08.481Z,23.92
2022-12-07T20:41:54.150Z,23.67
2022-12-07T20:44:20.910Z,25.40
2022-12-07T20:49:16.873Z,25.97
2022-12-07T20:51:44.537Z,24.88
2022-12-07T20:54:12.324Z,30.48
2022-12-07T20:56:39.770Z,25.58
2022-12-07T20:59:09.784Z,26.92
2022-12-07T21:01:37.161Z,23.70
2022-12-07T21:04:04.106Z,25.92
2022-12-07T21:06:31.141Z,23.05
2022-12-07T21:08:59.980Z,25.70
2022-12-07T21:11:28.680Z,23.65
2022-12-07T21:13:55.531Z,20.80
2022-12-07T21:16:32.173Z,23.20
2022-12-07T21:19:02.482Z,24.02
2022-12-07T21:21:30.926Z,24.17
2022-12-07T21:24:02.524Z,22.48
2022-12-07T21:26:31.122Z,22.15
2022-12-07T21:28:58.016Z,24.27
2022-12-07T21:31:25.536Z,23.13
2022-12-07T21:33:52.342Z,25.95
2022-12-07T21:38:47.408Z,21.70
2022-12-07T21:41:29.846Z,24.45
2022-12-07T21:43:57.364Z,24.67
2022-12-07T21:46:32.990Z,23.83
2022-12-07T21:49:05.755Z,23.40
2022-12-07T21:51:32.673Z,28.90
2022-12-07T21:54:00.669Z,30.00
2022-12-07T21:56:30.423Z,22.95
2022-12-07T21:59:02.808Z,24.80
2022-12-07T22:01:35.638Z,27.55
2022-12-07T22:04:04.198Z,25.13
2022-12-07T22:06:31.121Z,25.58
2022-12-07T22:08:57.791Z,24.30
2022-12-07T22:11:24.417Z,22.70
2022-12-07T22:16:38.858Z,23.80
2022-12-07T22:19:06.456Z,28.70
2022-12-07T22:21:33.722Z,27.60
2022-12-07T22:24:00.695Z,22.85
2022-12-07T22:26:27.809Z,24.42
2022-12-07T22:28:54.835Z,21.98
2022-12-07T22:31:22.261Z,22.98
2022-12-07T22:33:49.860Z,22.30
2022-12-07T22:36:17.019Z,22.95
2022-12-07T22:38:44.137Z,27.27
2022-12-07T22:41:31.938Z,24.42
2022-12-07T22:43:59.753Z,24.25
2022-12-07T22:46:27.051Z,24.95
2022-12-07T22:48:54.364Z,27.95
2022-12-07T22:51:26.995Z,27.50
2022-12-07T22:53:54.984Z,24.77
2022-12-07T22:56:23.032Z,25.40
2022-12-07T22:58:50.030Z,26.80
2022-12-07T23:01:18.102Z,26.83
2022-12-07T23:03:45.205Z,32.13
2022-12-07T23:06:19.392Z,27.50
2022-12-07T23:08:46.860Z,28.75
2022-12-07T23:11:38.186Z,30.00
2022-12-07T23:14:10.053Z,34.08
2022-12-07T23:16:37.175Z,33.78
2022-12-07T23:19:04.221Z,31.08
2022-12-07T23:21:31.228Z,36.00
2022-12-07T23:23:57.958Z,42.38
2022-12-07T23:28:52.001Z,33.35
2022-12-07T23:31:20.512Z,34.88
2022-12-07T23:33:47.690Z,32.38
2022-12-07T23:36:17.188Z,39.50
2022-12-07T23:38:45.330Z,36.28
2022-12-07T23:41:17.310Z,38.00
2022-12-07T23:43:44.313Z,40.42
2022-12-07T23:46:23.133Z,39.72
2022-12-07T23:48:51.510Z,38.83
2022-12-07T23:51:18.431Z,41.75
2022-12-07T23:53:48.043Z,41.88
2022-12-07T23:56:18.227Z,47.22
2022-12-07T23:58:45.801Z,42.30
